sensor_id;sensor_type;location;lat;lon;timestamp;temperature;humidity
16955;DHT22;8594;52.052;8.354;2023-02-20T00:01:00;8.10;99.90
16955;DHT22;8594;52.052;8.354;2023-02-20T00:03:28;8.00;99.90
16955;DHT22;8594;52.052;8.354;2023-02-20T00:05:55;7.60;99.90
16955;DHT22;8594;52.052;8.354;2023-02-20T00:08:22;7.70;99.90
16955;DHT22;8594;52.052;8.354;2023-02-20T00:10:49;7.80;99.90
16955;DHT22;8594;52.052;8.354;2023-02-20T00:13:15;7.90;99.90
16955;DHT22;8594;52.052;8.354;2023-02-20T00:15:43;8.00;99.90
16955;DHT22;8594;52.052;8.354;2023-02-20T00:18:10;7.90;99.90
16955;DHT22;8594;52.052;8.354;2023-02-20T00:20:37;7.80;99.90
16955;DHT22;8594;52.052;8.354;2023-02-20T00:23:04;7.90;99.90
16955;DHT22;8594;52.052;8.354;2023-02-20T00:25:31;7.80;99.90
16955;DHT22;8594;52.052;8.354;2023-02-20T00:27:57;7.80;99.90
16955;DHT22;8594;52.052;8.354;2023-02-20T00:30:24;7.80;99.90
16955;DHT22;8594;52.052;8.354;2023-02-20T00:32:54;7.90;99.90
16955;DHT22;8594;52.052;8.354;2023-02-20T00:35:22;7.80;99.90
16955;DHT22;8594;52.052;8.354;2023-02-20T00:37:51;7.90;99.90
16955;DHT22;8594;52.052;8.354;2023-02-20T00:40:20;7.80;99.90
16955;DHT22;8594;52.052;8.354;2023-02-20T00:42:49;7.70;99.90
16955;DHT22;8594;52.052;8.354;2023-02-20T00:45:17;7.60;99.90
16955;DHT22;8594;52.052;8.354;2023-02-20T00:47:44;7.60;99.90
16955;DHT22;8594;52.052;8.354;2023-02-20T00:50:14;7.60;99.90
16955;DHT22;8594;52.052;8.354;2023-02-20T00:52:42;7.50;99.90
16955;DHT22;8594;52.052;8.354;2023-02-20T00:55:09;7.60;99.90
16955;DHT22;8594;52.052;8.354;2023-02-20T00:57:36;7.60;99.90
16955;DHT22;8594;52.052;8.354;2023-02-20T01:00:04;7.60;99.90
16955;DHT22;8594;52.052;8.354;2023-02-20T01:02:32;7.70;99.90
16955;DHT22;8594;52.052;8.354;2023-02-20T01:04:59;7.80;99.90
16955;DHT22;8594;52.052;8.354;2023-02-20T01:07:27;7.70;99.90
16955;DHT22;8594;52.052;8.354;2023-02-20T01:09:53;7.60;99.90
16955;DHT22;8594;52.052;8.354;2023-02-20T01:12:20;7.60;99.90
16955;DHT22;8594;52.052;8.354;2023-02-20T01:14:47;7.50;99.90
16955;DHT22;8594;52.052;8.354;2023-02-20T01:17:14;7.30;99.90
16955;DHT22;8594;52.052;8.354;2023-02-20T01:19:40;7.20;99.90
16955;DHT22;8594;52.052;8.354;2023-02-20T01:22:09;7.20;99.90
16955;DHT22;8594;52.052;8.354;2023-02-20T01:24:37;7.30;99.90
16955;DHT22;8594;52.052;8.354;2023-02-20T01:27:05;7.30;99.90
16955;DHT22;8594;52.052;8.354;2023-02-20T01:29:32;7.30;99.90
16955;DHT22;8594;52.052;8.354;2023-02-20T01:31:58;7.30;99.90
16955;DHT22;8594;52.052;8.354;2023-02-20T01:34:26;7.30;99.90
16955;DHT22;8594;52.052;8.354;2023-02-20T01:36:53;7.30;99.90
16955;DHT22;8594;52.052;8.354;2023-02-20T01:39:23;7.10;99.90
16955;DHT22;8594;52.052;8.354;2023-02-20T01:41:54;7.20;99.90
16955;DHT22;8594;52.052;8.354;2023-02-20T01:44:26;7.20;99.90
16955;DHT22;8594;52.052;8.354;2023-02-20T01:46:55;7.40;99.90
16955;DHT22;8594;52.052;8.354;2023-02-20T01:49:30;7.40;99.90
16955;DHT22;8594;52.052;8.354;2023-02-20T01:52:06;7.20;99.90
16955;DHT22;8594;52.052;8.354;2023-02-20T01:54:37;7.10;99.90
16955;DHT22;8594;52.052;8.354;2023-02-20T01:57:12;7.00;99.90
16955;DHT22;8594;52.052;8.354;2023-02-20T01:59:43;6.90;99.90
16955;DHT22;8594;52.052;8.354;2023-02-20T02:02:11;7.00;99.90
16955;DHT22;8594;52.052;8.354;2023-02-20T02:04:39;6.90;99.90
16955;DHT22;8594;52.052;8.354;2023-02-20T02:07:09;7.00;99.90
16955;DHT22;8594;52.052;8.354;2023-02-20T02:09:41;7.10;99.90
16955;DHT22;8594;52.052;8.354;2023-02-20T02:12:14;7.20;99.90
16955;DHT22;8594;52.052;8.354;2023-02-20T02:14:41;7.40;99.90
16955;DHT22;8594;52.052;8.354;2023-02-20T02:17:24;7.40;99.90
16955;DHT22;8594;52.052;8.354;2023-02-20T02:20:35;7.20;99.90
16955;DHT22;8594;52.052;8.354;2023-02-20T02:23:53;7.30;99.90
16955;DHT22;8594;52.052;8.354;2023-02-20T02:27:04;7.30;99.90
16955;DHT22;8594;52.052;8.354;2023-02-20T02:37:01;7.40;99.90
16955;DHT22;8594;52.052;8.354;2023-02-20T02:39:38;7.40;99.90
16955;DHT22;8594;52.052;8.354;2023-02-20T02:42:15;7.40;99.90
16955;DHT22;8594;52.052;8.354;2023-02-20T02:44:53;7.20;99.90
16955;DHT22;8594;52.052;8.354;2023-02-20T02:47:29;7.20;99.90
16955;DHT22;8594;52.052;8.354;2023-02-20T02:50:04;7.30;99.90
16955;DHT22;8594;52.052;8.354;2023-02-20T02:52:35;7.30;99.90
16955;DHT22;8594;52.052;8.354;2023-02-20T02:55:11;7.30;99.90
16955;DHT22;8594;52.052;8.354;2023-02-20T02:57:39;7.40;99.90
16955;DHT22;8594;52.052;8.354;2023-02-20T03:00:10;7.40;99.90
16955;DHT22;8594;52.052;8.354;2023-02-20T03:02:42;7.50;99.90
16955;DHT22;8594;52.052;8.354;2023-02-20T03:05:17;7.40;99.90
16955;DHT22;8594;52.052;8.354;2023-02-20T03:07:52;7.50;99.90
16955;DHT22;8594;52.052;8.354;2023-02-20T03:10:23;7.40;99.90
16955;DHT22;8594;52.052;8.354;2023-02-20T03:12:58;7.50;99.90
16955;DHT22;8594;52.052;8.354;2023-02-20T03:15:31;7.30;99.90
16955;DHT22;8594;52.052;8.354;2023-02-20T03:18:15;7.30;99.90
16955;DHT22;8594;52.052;8.354;2023-02-20T03:20:52;7.40;99.90
16955;DHT22;8594;52.052;8.354;2023-02-20T03:23:25;7.60;99.90
16955;DHT22;8594;52.052;8.354;2023-02-20T03:25:59;7.40;99.90
16955;DHT22;8594;52.052;8.354;2023-02-20T03:28:31;7.50;99.90
16955;DHT22;8594;52.052;8.354;2023-02-20T03:31:05;7.50;99.90
16955;DHT22;8594;52.052;8.354;2023-02-20T03:33:37;7.40;99.90
16955;DHT22;8594;52.052;8.354;2023-02-20T03:36:29;7.40;99.90
16955;DHT22;8594;52.052;8.354;2023-02-20T03:39:20;7.40;99.90
16955;DHT22;8594;52.052;8.354;2023-02-20T03:42:09;7.50;99.90
16955;DHT22;8594;52.052;8.354;2023-02-20T03:44:58;7.40;99.90
16955;DHT22;8594;52.052;8.354;2023-02-20T03:47:27;7.40;99.90
16955;DHT22;8594;52.052;8.354;2023-02-20T03:49:57;7.50;99.90
16955;DHT22;8594;52.052;8.354;2023-02-20T03:52:26;7.30;99.90
16955;DHT22;8594;52.052;8.354;2023-02-20T03:54:55;7.40;99.90
16955;DHT22;8594;52.052;8.354;2023-02-20T03:57:23;7.30;99.90
16955;DHT22;8594;52.052;8.354;2023-02-20T03:59:57;7.30;99.90
16955;DHT22;8594;52.052;8.354;2023-02-20T04:02:32;7.40;99.90
16955;DHT22;8594;52.052;8.354;2023-02-20T04:05:04;7.50;99.90
16955;DHT22;8594;52.052;8.354;2023-02-20T04:07:36;7.40;99.90
16955;DHT22;8594;52.052;8.354;2023-02-20T04:10:17;7.40;99.90
16955;DHT22;8594;52.052;8.354;2023-02-20T04:12:49;7.40;99.90
16955;DHT22;8594;52.052;8.354;2023-02-20T04:15:18;7.50;99.90
16955;DHT22;8594;52.052;8.354;2023-02-20T04:17:49;7.60;99.90
16955;DHT22;8594;52.052;8.354;2023-02-20T04:20:21;7.60;99.90
16955;DHT22;8594;52.052;8.354;2023-02-20T04:22:49;7.50;99.90
16955;DHT22;8594;52.052;8.354;2023-02-20T04:25:29;7.60;99.90
16955;DHT22;8594;52.052;8.354;2023-02-20T04:28:02;7.50;99.90
16955;DHT22;8594;52.052;8.354;2023-02-20T04:30:30;7.40;99.90
16955;DHT22;8594;52.052;8.354;2023-02-20T04:32:57;7.40;99.90
16955;DHT22;8594;52.052;8.354;2023-02-20T04:35:24;7.50;99.90
16955;DHT22;8594;52.052;8.354;2023-02-20T04:37:51;7.40;99.90
16955;DHT22;8594;52.052;8.354;2023-02-20T04:40:22;7.50;99.90
16955;DHT22;8594;52.052;8.354;2023-02-20T04:42:50;7.50;99.90
16955;DHT22;8594;52.052;8.354;2023-02-20T04:45:17;7.60;99.90
16955;DHT22;8594;52.052;8.354;2023-02-20T04:47:43;7.60;99.90
16955;DHT22;8594;52.052;8.354;2023-02-20T04:50:18;7.60;99.90
16955;DHT22;8594;52.052;8.354;2023-02-20T04:52:47;7.60;99.90
16955;DHT22;8594;52.052;8.354;2023-02-20T04:55:14;7.50;99.90
16955;DHT22;8594;52.052;8.354;2023-02-20T04:57:42;7.50;99.90
16955;DHT22;8594;52.052;8.354;2023-02-20T05:00:10;7.60;99.90
16955;DHT22;8594;52.052;8.354;2023-02-20T05:02:39;7.60;99.90
16955;DHT22;8594;52.052;8.354;2023-02-20T05:05:13;7.60;99.90
16955;DHT22;8594;52.052;8.354;2023-02-20T05:07:42;7.50;99.90
16955;DHT22;8594;52.052;8.354;2023-02-20T05:10:12;7.50;99.90
16955;DHT22;8594;52.052;8.354;2023-02-20T05:12:39;7.60;99.90
16955;DHT22;8594;52.052;8.354;2023-02-20T05:15:08;7.60;99.90
16955;DHT22;8594;52.052;8.354;2023-02-20T05:17:35;7.50;99.90
16955;DHT22;8594;52.052;8.354;2023-02-20T05:20:02;7.50;99.90
16955;DHT22;8594;52.052;8.354;2023-02-20T05:22:29;7.70;99.90
16955;DHT22;8594;52.052;8.354;2023-02-20T05:24:55;7.60;99.90
16955;DHT22;8594;52.052;8.354;2023-02-20T05:27:23;7.80;99.90
16955;DHT22;8594;52.052;8.354;2023-02-20T05:29:52;7.70;99.90
16955;DHT22;8594;52.052;8.354;2023-02-20T05:32:22;7.50;99.90
16955;DHT22;8594;52.052;8.354;2023-02-20T05:34:50;7.70;99.90
16955;DHT22;8594;52.052;8.354;2023-02-20T05:37:18;7.70;99.90
16955;DHT22;8594;52.052;8.354;2023-02-20T05:39:46;7.60;99.90
16955;DHT22;8594;52.052;8.354;2023-02-20T05:42:14;7.60;99.90
16955;DHT22;8594;52.052;8.354;2023-02-20T05:44:42;7.70;99.90
16955;DHT22;8594;52.052;8.354;2023-02-20T05:47:10;7.70;99.90
16955;DHT22;8594;52.052;8.354;2023-02-20T05:49:38;7.50;99.90
16955;DHT22;8594;52.052;8.354;2023-02-20T05:52:05;7.60;99.90
16955;DHT22;8594;52.052;8.354;2023-02-20T05:54:36;7.70;99.90
16955;DHT22;8594;52.052;8.354;2023-02-20T05:57:03;7.70;99.90
16955;DHT22;8594;52.052;8.354;2023-02-20T05:59:29;7.70;99.90
16955;DHT22;8594;52.052;8.354;2023-02-20T06:01:58;7.70;99.90
16955;DHT22;8594;52.052;8.354;2023-02-20T06:04:26;7.70;99.90
16955;DHT22;8594;52.052;8.354;2023-02-20T06:06:54;7.50;99.90
16955;DHT22;8594;52.052;8.354;2023-02-20T06:09:21;7.40;99.90
16955;DHT22;8594;52.052;8.354;2023-02-20T06:11:50;7.40;99.90
16955;DHT22;8594;52.052;8.354;2023-02-20T06:14:20;7.50;99.90
16955;DHT22;8594;52.052;8.354;2023-02-20T06:16:48;7.50;99.90
16955;DHT22;8594;52.052;8.354;2023-02-20T06:19:19;7.60;99.90
16955;DHT22;8594;52.052;8.354;2023-02-20T06:21:48;7.60;99.90
16955;DHT22;8594;52.052;8.354;2023-02-20T06:24:17;7.60;99.90
16955;DHT22;8594;52.052;8.354;2023-02-20T06:26:44;7.50;99.90
16955;DHT22;8594;52.052;8.354;2023-02-20T06:29:13;7.50;99.90
16955;DHT22;8594;52.052;8.354;2023-02-20T06:31:41;7.50;99.90
16955;DHT22;8594;52.052;8.354;2023-02-20T06:34:08;7.50;99.90
16955;DHT22;8594;52.052;8.354;2023-02-20T06:36:37;7.50;99.90
16955;DHT22;8594;52.052;8.354;2023-02-20T06:39:07;7.50;99.90
16955;DHT22;8594;52.052;8.354;2023-02-20T06:41:40;7.40;99.90
16955;DHT22;8594;52.052;8.354;2023-02-20T06:44:07;7.30;99.90
16955;DHT22;8594;52.052;8.354;2023-02-20T06:46:34;7.30;99.90
16955;DHT22;8594;52.052;8.354;2023-02-20T06:49:00;7.30;99.90
16955;DHT22;8594;52.052;8.354;2023-02-20T06:51:29;7.40;99.90
16955;DHT22;8594;52.052;8.354;2023-02-20T06:53:57;7.30;99.90
16955;DHT22;8594;52.052;8.354;2023-02-20T06:56:26;7.40;99.90
16955;DHT22;8594;52.052;8.354;2023-02-20T06:58:56;7.50;99.90
16955;DHT22;8594;52.052;8.354;2023-02-20T07:01:26;7.50;99.90
16955;DHT22;8594;52.052;8.354;2023-02-20T07:03:55;7.30;99.90
16955;DHT22;8594;52.052;8.354;2023-02-20T07:06:24;7.10;99.90
16955;DHT22;8594;52.052;8.354;2023-02-20T07:08:51;7.30;99.90
16955;DHT22;8594;52.052;8.354;2023-02-20T07:11:20;7.20;99.90
16955;DHT22;8594;52.052;8.354;2023-02-20T07:13:48;7.30;99.90
16955;DHT22;8594;52.052;8.354;2023-02-20T07:16:17;7.30;99.90
16955;DHT22;8594;52.052;8.354;2023-02-20T07:18:43;7.40;99.90
16955;DHT22;8594;52.052;8.354;2023-02-20T07:21:10;7.40;99.90
16955;DHT22;8594;52.052;8.354;2023-02-20T07:23:37;7.40;99.90
16955;DHT22;8594;52.052;8.354;2023-02-20T07:26:04;7.30;99.90
16955;DHT22;8594;52.052;8.354;2023-02-20T07:28:33;7.30;99.90
16955;DHT22;8594;52.052;8.354;2023-02-20T07:31:00;7.30;99.90
16955;DHT22;8594;52.052;8.354;2023-02-20T07:33:28;7.30;99.90
16955;DHT22;8594;52.052;8.354;2023-02-20T07:35:55;7.30;99.90
16955;DHT22;8594;52.052;8.354;2023-02-20T07:38:22;7.40;99.90
16955;DHT22;8594;52.052;8.354;2023-02-20T07:40:50;7.50;99.90
16955;DHT22;8594;52.052;8.354;2023-02-20T07:43:17;7.40;99.90
16955;DHT22;8594;52.052;8.354;2023-02-20T07:45:44;7.50;99.90
16955;DHT22;8594;52.052;8.354;2023-02-20T07:48:11;7.50;99.90
16955;DHT22;8594;52.052;8.354;2023-02-20T07:50:39;7.60;99.90
16955;DHT22;8594;52.052;8.354;2023-02-20T07:53:06;7.50;99.90
16955;DHT22;8594;52.052;8.354;2023-02-20T07:55:33;7.50;99.90
16955;DHT22;8594;52.052;8.354;2023-02-20T07:57:59;7.40;99.90
16955;DHT22;8594;52.052;8.354;2023-02-20T08:00:26;7.50;99.90
16955;DHT22;8594;52.052;8.354;2023-02-20T08:02:53;7.50;99.90
16955;DHT22;8594;52.052;8.354;2023-02-20T08:05:20;7.50;99.90
16955;DHT22;8594;52.052;8.354;2023-02-20T08:07:49;7.50;99.90
16955;DHT22;8594;52.052;8.354;2023-02-20T08:10:18;7.40;99.90
16955;DHT22;8594;52.052;8.354;2023-02-20T08:12:46;7.40;99.90
16955;DHT22;8594;52.052;8.354;2023-02-20T08:15:13;7.60;99.90
16955;DHT22;8594;52.052;8.354;2023-02-20T08:17:40;7.50;99.90
16955;DHT22;8594;52.052;8.354;2023-02-20T08:20:08;7.60;99.90
16955;DHT22;8594;52.052;8.354;2023-02-20T08:22:35;7.50;99.90
16955;DHT22;8594;52.052;8.354;2023-02-20T08:25:04;7.40;99.90
16955;DHT22;8594;52.052;8.354;2023-02-20T08:27:31;7.60;99.90
16955;DHT22;8594;52.052;8.354;2023-02-20T08:30:03;7.60;99.90
16955;DHT22;8594;52.052;8.354;2023-02-20T08:32:31;7.60;99.90
16955;DHT22;8594;52.052;8.354;2023-02-20T08:34:58;7.50;99.90
16955;DHT22;8594;52.052;8.354;2023-02-20T08:37:24;7.40;99.90
16955;DHT22;8594;52.052;8.354;2023-02-20T08:39:51;7.60;99.90
16955;DHT22;8594;52.052;8.354;2023-02-20T08:42:19;7.60;99.90
16955;DHT22;8594;52.052;8.354;2023-02-20T08:44:46;7.60;99.90
16955;DHT22;8594;52.052;8.354;2023-02-20T08:47:13;7.40;99.90
16955;DHT22;8594;52.052;8.354;2023-02-20T08:49:40;7.40;99.90
16955;DHT22;8594;52.052;8.354;2023-02-20T08:52:07;7.50;99.90
16955;DHT22;8594;52.052;8.354;2023-02-20T08:54:33;7.60;99.90
16955;DHT22;8594;52.052;8.354;2023-02-20T08:57:00;7.40;99.90
16955;DHT22;8594;52.052;8.354;2023-02-20T08:59:31;7.50;99.90
16955;DHT22;8594;52.052;8.354;2023-02-20T09:01:58;7.50;99.90
16955;DHT22;8594;52.052;8.354;2023-02-20T09:04:25;7.70;99.90
16955;DHT22;8594;52.052;8.354;2023-02-20T09:06:51;7.70;99.90
16955;DHT22;8594;52.052;8.354;2023-02-20T09:09:18;7.70;99.90
16955;DHT22;8594;52.052;8.354;2023-02-20T09:11:45;7.80;99.90
16955;DHT22;8594;52.052;8.354;2023-02-20T09:14:12;7.80;99.90
16955;DHT22;8594;52.052;8.354;2023-02-20T09:16:40;7.60;99.90
16955;DHT22;8594;52.052;8.354;2023-02-20T09:19:07;7.70;99.90
16955;DHT22;8594;52.052;8.354;2023-02-20T09:21:34;7.60;99.90
16955;DHT22;8594;52.052;8.354;2023-02-20T09:24:01;7.60;99.90
16955;DHT22;8594;52.052;8.354;2023-02-20T09:26:30;7.70;99.90
16955;DHT22;8594;52.052;8.354;2023-02-20T09:28:57;7.70;99.90
16955;DHT22;8594;52.052;8.354;2023-02-20T09:31:24;7.80;99.90
16955;DHT22;8594;52.052;8.354;2023-02-20T09:33:52;7.60;99.90
16955;DHT22;8594;52.052;8.354;2023-02-20T09:36:19;7.70;99.90
16955;DHT22;8594;52.052;8.354;2023-02-20T09:38:46;7.60;99.90
16955;DHT22;8594;52.052;8.354;2023-02-20T09:41:39;7.60;99.90
16955;DHT22;8594;52.052;8.354;2023-02-20T09:44:21;7.60;99.90
16955;DHT22;8594;52.052;8.354;2023-02-20T09:46:59;7.80;99.90
16955;DHT22;8594;52.052;8.354;2023-02-20T09:49:34;7.90;99.90
16955;DHT22;8594;52.052;8.354;2023-02-20T09:52:05;7.90;99.90
16955;DHT22;8594;52.052;8.354;2023-02-20T09:54:40;7.90;99.90
16955;DHT22;8594;52.052;8.354;2023-02-20T09:57:13;7.80;99.90
16955;DHT22;8594;52.052;8.354;2023-02-20T09:59:47;7.90;99.90
16955;DHT22;8594;52.052;8.354;2023-02-20T10:02:19;7.90;99.90
16955;DHT22;8594;52.052;8.354;2023-02-20T10:04:54;8.00;99.90
16955;DHT22;8594;52.052;8.354;2023-02-20T10:07:29;8.10;99.90
16955;DHT22;8594;52.052;8.354;2023-02-20T10:09:59;8.00;99.90
16955;DHT22;8594;52.052;8.354;2023-02-20T10:12:34;8.00;99.90
16955;DHT22;8594;52.052;8.354;2023-02-20T10:15:14;8.00;99.90
16955;DHT22;8594;52.052;8.354;2023-02-20T10:17:51;8.00;99.90
16955;DHT22;8594;52.052;8.354;2023-02-20T10:20:34;8.10;99.90
16955;DHT22;8594;52.052;8.354;2023-02-20T10:23:12;8.20;99.90
16955;DHT22;8594;52.052;8.354;2023-02-20T10:25:50;8.20;99.90
16955;DHT22;8594;52.052;8.354;2023-02-20T10:28:19;8.10;99.90
16955;DHT22;8594;52.052;8.354;2023-02-20T10:30:54;8.30;99.90
16955;DHT22;8594;52.052;8.354;2023-02-20T10:33:28;8.30;99.90
16955;DHT22;8594;52.052;8.354;2023-02-20T10:36:07;8.30;99.90
16955;DHT22;8594;52.052;8.354;2023-02-20T10:38:43;8.30;99.90
16955;DHT22;8594;52.052;8.354;2023-02-20T10:41:17;8.40;99.90
16955;DHT22;8594;52.052;8.354;2023-02-20T10:43:53;8.20;99.90
16955;DHT22;8594;52.052;8.354;2023-02-20T10:46:30;8.10;99.90
16955;DHT22;8594;52.052;8.354;2023-02-20T10:49:12;8.10;99.90
16955;DHT22;8594;52.052;8.354;2023-02-20T10:51:45;8.10;99.90
16955;DHT22;8594;52.052;8.354;2023-02-20T10:54:18;8.10;99.90
16955;DHT22;8594;52.052;8.354;2023-02-20T10:56:55;8.20;99.90
16955;DHT22;8594;52.052;8.354;2023-02-20T10:59:29;8.20;99.90
16955;DHT22;8594;52.052;8.354;2023-02-20T11:02:04;8.40;99.90
16955;DHT22;8594;52.052;8.354;2023-02-20T11:04:41;8.40;99.90
16955;DHT22;8594;52.052;8.354;2023-02-20T11:07:17;8.40;99.90
16955;DHT22;8594;52.052;8.354;2023-02-20T11:09:46;8.40;99.90
16955;DHT22;8594;52.052;8.354;2023-02-20T11:12:21;8.30;99.90
16955;DHT22;8594;52.052;8.354;2023-02-20T11:14:55;8.30;99.90
16955;DHT22;8594;52.052;8.354;2023-02-20T11:17:24;8.30;99.90
16955;DHT22;8594;52.052;8.354;2023-02-20T11:19:56;8.20;99.90
16955;DHT22;8594;52.052;8.354;2023-02-20T11:22:40;8.40;99.90
16955;DHT22;8594;52.052;8.354;2023-02-20T11:25:17;8.40;99.90
16955;DHT22;8594;52.052;8.354;2023-02-20T11:27:49;8.60;99.90
16955;DHT22;8594;52.052;8.354;2023-02-20T11:30:27;8.50;99.90
16955;DHT22;8594;52.052;8.354;2023-02-20T11:33:00;8.40;99.90
16955;DHT22;8594;52.052;8.354;2023-02-20T11:35:33;8.50;99.90
16955;DHT22;8594;52.052;8.354;2023-02-20T11:38:28;8.60;99.90
16955;DHT22;8594;52.052;8.354;2023-02-20T11:41:05;8.60;99.90
16955;DHT22;8594;52.052;8.354;2023-02-20T11:43:40;8.60;99.90
16955;DHT22;8594;52.052;8.354;2023-02-20T11:46:10;8.70;99.90
16955;DHT22;8594;52.052;8.354;2023-02-20T11:48:58;8.60;99.90
16955;DHT22;8594;52.052;8.354;2023-02-20T11:51:35;8.50;99.90
16955;DHT22;8594;52.052;8.354;2023-02-20T11:54:13;8.50;99.90
16955;DHT22;8594;52.052;8.354;2023-02-20T11:57:03;8.50;99.90
16955;DHT22;8594;52.052;8.354;2023-02-20T11:59:35;8.60;99.90
16955;DHT22;8594;52.052;8.354;2023-02-20T12:02:17;8.50;99.90
16955;DHT22;8594;52.052;8.354;2023-02-20T12:05:07;8.70;99.90
16955;DHT22;8594;52.052;8.354;2023-02-20T12:07:39;8.80;99.90
16955;DHT22;8594;52.052;8.354;2023-02-20T12:10:30;8.70;99.90
16955;DHT22;8594;52.052;8.354;2023-02-20T12:13:04;8.60;99.90
16955;DHT22;8594;52.052;8.354;2023-02-20T12:15:32;8.70;99.90
16955;DHT22;8594;52.052;8.354;2023-02-20T12:18:11;8.70;99.90
16955;DHT22;8594;52.052;8.354;2023-02-20T12:20:55;8.90;99.90
16955;DHT22;8594;52.052;8.354;2023-02-20T12:23:35;8.80;99.90
16955;DHT22;8594;52.052;8.354;2023-02-20T12:26:24;8.80;99.90
16955;DHT22;8594;52.052;8.354;2023-02-20T12:29:09;8.70;99.90
16955;DHT22;8594;52.052;8.354;2023-02-20T12:31:52;8.90;99.90
16955;DHT22;8594;52.052;8.354;2023-02-20T12:34:34;8.90;99.90
16955;DHT22;8594;52.052;8.354;2023-02-20T12:37:17;8.90;99.90
16955;DHT22;8594;52.052;8.354;2023-02-20T12:40:00;9.00;99.90
16955;DHT22;8594;52.052;8.354;2023-02-20T12:42:41;9.00;99.90
16955;DHT22;8594;52.052;8.354;2023-02-20T12:45:21;9.00;99.90
16955;DHT22;8594;52.052;8.354;2023-02-20T12:48:22;9.10;99.90
16955;DHT22;8594;52.052;8.354;2023-02-20T12:51:16;9.20;99.90
16955;DHT22;8594;52.052;8.354;2023-02-20T12:54:03;9.10;99.90
16955;DHT22;8594;52.052;8.354;2023-02-20T12:56:49;9.00;99.90
16955;DHT22;8594;52.052;8.354;2023-02-20T12:59:27;8.90;99.90
16955;DHT22;8594;52.052;8.354;2023-02-20T13:02:13;9.10;99.90
16955;DHT22;8594;52.052;8.354;2023-02-20T13:04:51;9.10;99.90
16955;DHT22;8594;52.052;8.354;2023-02-20T13:07:23;9.00;99.90
16955;DHT22;8594;52.052;8.354;2023-02-20T13:10:00;9.00;99.90
16955;DHT22;8594;52.052;8.354;2023-02-20T13:12:32;9.00;99.90
16955;DHT22;8594;52.052;8.354;2023-02-20T13:15:18;8.90;99.90
16955;DHT22;8594;52.052;8.354;2023-02-20T13:18:04;9.00;99.90
16955;DHT22;8594;52.052;8.354;2023-02-20T13:20:46;9.10;99.90
16955;DHT22;8594;52.052;8.354;2023-02-20T13:23:28;8.90;99.90
16955;DHT22;8594;52.052;8.354;2023-02-20T13:25:57;8.80;99.90
16955;DHT22;8594;52.052;8.354;2023-02-20T13:28:38;8.80;99.90
16955;DHT22;8594;52.052;8.354;2023-02-20T13:31:19;9.00;99.90
16955;DHT22;8594;52.052;8.354;2023-02-20T13:33:50;9.00;99.90
16955;DHT22;8594;52.052;8.354;2023-02-20T13:36:40;8.90;99.90
16955;DHT22;8594;52.052;8.354;2023-02-20T13:39:40;8.90;99.90
16955;DHT22;8594;52.052;8.354;2023-02-20T13:42:28;8.80;99.90
16955;DHT22;8594;52.052;8.354;2023-02-20T13:44:57;8.80;99.90
16955;DHT22;8594;52.052;8.354;2023-02-20T13:47:36;8.90;99.90
16955;DHT22;8594;52.052;8.354;2023-02-20T13:50:30;8.90;99.90
16955;DHT22;8594;52.052;8.354;2023-02-20T13:53:03;9.00;99.90
16955;DHT22;8594;52.052;8.354;2023-02-20T13:55:32;9.00;99.90
16955;DHT22;8594;52.052;8.354;2023-02-20T13:58:07;9.10;99.90
16955;DHT22;8594;52.052;8.354;2023-02-20T14:00:45;9.20;99.90
16955;DHT22;8594;52.052;8.354;2023-02-20T14:03:21;9.20;99.90
16955;DHT22;8594;52.052;8.354;2023-02-20T14:06:04;9.10;99.90
16955;DHT22;8594;52.052;8.354;2023-02-20T14:08:35;9.10;99.90
16955;DHT22;8594;52.052;8.354;2023-02-20T14:11:05;9.00;99.90
16955;DHT22;8594;52.052;8.354;2023-02-20T14:13:33;9.10;99.90
16955;DHT22;8594;52.052;8.354;2023-02-20T14:16:01;9.10;99.90
16955;DHT22;8594;52.052;8.354;2023-02-20T14:18:31;8.90;99.90
16955;DHT22;8594;52.052;8.354;2023-02-20T14:21:08;9.00;99.90
16955;DHT22;8594;52.052;8.354;2023-02-20T14:23:41;9.00;99.90
16955;DHT22;8594;52.052;8.354;2023-02-20T14:26:19;9.00;99.90
16955;DHT22;8594;52.052;8.354;2023-02-20T14:28:50;8.90;99.90
16955;DHT22;8594;52.052;8.354;2023-02-20T14:31:23;9.00;99.90
16955;DHT22;8594;52.052;8.354;2023-02-20T14:33:55;9.00;99.90
16955;DHT22;8594;52.052;8.354;2023-02-20T14:36:41;9.00;99.90
16955;DHT22;8594;52.052;8.354;2023-02-20T14:39:33;9.10;99.90
16955;DHT22;8594;52.052;8.354;2023-02-20T14:42:14;9.00;99.90
16955;DHT22;8594;52.052;8.354;2023-02-20T14:44:47;9.10;99.90
16955;DHT22;8594;52.052;8.354;2023-02-20T14:47:16;9.20;99.90
16955;DHT22;8594;52.052;8.354;2023-02-20T14:49:44;9.10;99.90
16955;DHT22;8594;52.052;8.354;2023-02-20T14:52:18;8.90;99.90
16955;DHT22;8594;52.052;8.354;2023-02-20T14:54:56;9.00;99.90
16955;DHT22;8594;52.052;8.354;2023-02-20T14:57:24;9.10;99.90
16955;DHT22;8594;52.052;8.354;2023-02-20T15:00:07;9.10;99.90
16955;DHT22;8594;52.052;8.354;2023-02-20T15:02:35;9.00;99.90
16955;DHT22;8594;52.052;8.354;2023-02-20T15:05:06;9.10;99.90
16955;DHT22;8594;52.052;8.354;2023-02-20T15:07:37;9.10;99.90
16955;DHT22;8594;52.052;8.354;2023-02-20T15:10:27;9.00;99.90
16955;DHT22;8594;52.052;8.354;2023-02-20T15:13:04;9.00;99.90
16955;DHT22;8594;52.052;8.354;2023-02-20T15:15:35;9.00;99.90
16955;DHT22;8594;52.052;8.354;2023-02-20T15:18:08;8.80;99.90
16955;DHT22;8594;52.052;8.354;2023-02-20T15:20:40;8.90;99.90
16955;DHT22;8594;52.052;8.354;2023-02-20T15:23:23;8.90;99.90
16955;DHT22;8594;52.052;8.354;2023-02-20T15:25:53;9.00;99.90
16955;DHT22;8594;52.052;8.354;2023-02-20T15:28:26;9.00;99.90
16955;DHT22;8594;52.052;8.354;2023-02-20T15:31:04;8.90;99.90
16955;DHT22;8594;52.052;8.354;2023-02-20T15:33:41;8.90;99.90
16955;DHT22;8594;52.052;8.354;2023-02-20T15:36:17;8.80;99.90
16955;DHT22;8594;52.052;8.354;2023-02-20T15:38:46;9.00;99.90
16955;DHT22;8594;52.052;8.354;2023-02-20T15:41:13;9.10;99.90
16955;DHT22;8594;52.052;8.354;2023-02-20T15:43:42;9.20;99.90
16955;DHT22;8594;52.052;8.354;2023-02-20T15:46:09;9.20;99.90
16955;DHT22;8594;52.052;8.354;2023-02-20T15:48:36;9.10;99.90
16955;DHT22;8594;52.052;8.354;2023-02-20T15:51:04;9.10;99.90
16955;DHT22;8594;52.052;8.354;2023-02-20T15:53:32;9.10;99.90
16955;DHT22;8594;52.052;8.354;2023-02-20T15:56:00;9.20;99.90
16955;DHT22;8594;52.052;8.354;2023-02-20T15:58:29;9.20;99.90
16955;DHT22;8594;52.052;8.354;2023-02-20T16:00:59;9.20;99.90
16955;DHT22;8594;52.052;8.354;2023-02-20T16:03:27;9.00;99.90
16955;DHT22;8594;52.052;8.354;2023-02-20T16:05:56;9.10;99.90
16955;DHT22;8594;52.052;8.354;2023-02-20T16:08:24;9.10;99.90
16955;DHT22;8594;52.052;8.354;2023-02-20T16:10:53;9.00;99.90
16955;DHT22;8594;52.052;8.354;2023-02-20T16:13:24;8.90;99.90
16955;DHT22;8594;52.052;8.354;2023-02-20T16:15:54;8.90;99.90
16955;DHT22;8594;52.052;8.354;2023-02-20T16:18:22;8.90;99.90
16955;DHT22;8594;52.052;8.354;2023-02-20T16:20:49;8.80;99.90
16955;DHT22;8594;52.052;8.354;2023-02-20T16:23:17;8.90;99.90
16955;DHT22;8594;52.052;8.354;2023-02-20T16:25:44;8.90;99.90
16955;DHT22;8594;52.052;8.354;2023-02-20T16:28:12;8.90;99.90
16955;DHT22;8594;52.052;8.354;2023-02-20T16:30:41;8.90;99.90
16955;DHT22;8594;52.052;8.354;2023-02-20T16:33:13;9.00;99.90
16955;DHT22;8594;52.052;8.354;2023-02-20T16:35:42;8.90;99.90
16955;DHT22;8594;52.052;8.354;2023-02-20T16:38:09;8.90;99.90
16955;DHT22;8594;52.052;8.354;2023-02-20T16:40:36;9.00;99.90
16955;DHT22;8594;52.052;8.354;2023-02-20T16:43:03;8.90;99.90